Main page
METAR-TAF:

METAR-TAF

Airports :

Piešťany, Slovakia

Piešťany Airport

latitude: 48-37-30N, longitude: 017-49-43E, elevation: 163 m

Current weather observation

The report was made 13 minutes ago, at 19:00 UTC
Wind 7 kt from the North
Temperature 4°C
Humidity 87%
Pressure 1022 hPa
Visibility: 6000 m
Scattered clouds at a height of 2000 ft
Overcast at a height of 4000 ft

METAR: LZPP 171900Z 35007KT 6000 SCT020 OVC040 04/02 Q1022

Time: 20:13 (19:13 UTC)

Forecast

The report was made 2 hours and 13 minutes ago, at 17:00 UTC
Forecast valid from 17 at 18 UTC to 18 at 03 UTC
Wind 6 kt from the North/Northwest
Visibility: 6000 m
Overcast at a height of 2000 ft
Temporary
from 17 at 18 UTC to 17 at 23 UTC
Visibility: 3000 m
Broken clouds at a height of 1000 ft
Overcast at a height of 1500 ft
light rain, mist
Becoming
from 18 at 01 UTC to 18 at 03 UTC
Overcast at a height of 4000 ft

TAF: LZPP 171700Z 1718/1803 34006KT 6000 OVC020 TEMPO 1718/1723 3000 -RA BR BKN010 OVC015 BECMG 1801/1803 OVC040

Weather observations and forecasts of more than 4000 airports (METAR and TAF reports).

The available stations are represented by yellow and red dots on the map.

Hover mouse over dot to see the name of the station.

Then click to see weather observations and forecasts.

To change the map : click on the green buttons with a black cross to zoom in, on the green button with a dash to zoom out, or on the green arrows for adjacent maps.


METAR-TAF: